SAS789 EKCH-LIEO
Flight info
| Callsign | SAS789 |
|---|---|
| Flight time | N/A |
| Altitude | 39000 |
| Route | SALLO M44 KOGIM M602 USEDU DCT ADLIR DCT OSKAN DCT MAREM DCT RUDAP DCT BAMTA DCT RADIZ DCT VABMO DCT TINTO DCT GITRI |
| Aircraft | B738/M-SDE2E3FGHIRWXY/LB1 |
Departure
| Time | 2026-04-26 11:22 |
|---|---|
| Airport | Copenhagen Kastrup Airport (EKCH) |
Arrival
| Time | N/A |
|---|---|
| Airport | Olbia Costa Smeralda Airport (LIEO) |
| Time | Latitude | Longitude | Altitude | Speed | Heading |
|---|---|---|---|---|---|
| 2026-04-26 10:33 | 55.62582 | 12.64563 | 23 ft | 0 kts | 343° |
| 2026-04-26 11:12 | 55.62579 | 12.64564 | 23 ft | 3 kts | 343° |
| 2026-04-26 11:12 | 55.62553 | 12.64577 | 26 ft | 4 kts | 343° |
| 2026-04-26 11:12 | 55.62528 | 12.64592 | 28 ft | 4 kts | 337° |
| 2026-04-26 11:12 | 55.62506 | 12.64612 | 26 ft | 3 kts | 322° |
| 2026-04-26 11:13 | 55.62493 | 12.64637 | 28 ft | 4 kts | 250° |
| 2026-04-26 11:13 | 55.62509 | 12.64654 | 27 ft | 4 kts | 180° |
| 2026-04-26 11:13 | 55.62533 | 12.64653 | 25 ft | 2 kts | 179° |
| 2026-04-26 11:13 | 55.62535 | 12.64653 | 25 ft | 0 kts | 179° |
| 2026-04-26 11:15 | 55.62534 | 12.64653 | 25 ft | 1 kts | 179° |
| 2026-04-26 11:16 | 55.62510 | 12.64654 | 27 ft | 7 kts | 176° |
| 2026-04-26 11:16 | 55.62443 | 12.64673 | 23 ft | 12 kts | 166° |
| 2026-04-26 11:16 | 55.62388 | 12.64775 | 24 ft | 12 kts | 123° |
| 2026-04-26 11:16 | 55.62345 | 12.64892 | 24 ft | 11 kts | 123° |
| 2026-04-26 11:17 | 55.62303 | 12.65006 | 24 ft | 11 kts | 123° |
| 2026-04-26 11:17 | 55.62262 | 12.65116 | 26 ft | 11 kts | 123° |
| 2026-04-26 11:17 | 55.62199 | 12.65164 | 23 ft | 13 kts | 204° |
| 2026-04-26 11:17 | 55.62107 | 12.65060 | 24 ft | 19 kts | 213° |
| 2026-04-26 11:18 | 55.61981 | 12.64914 | 25 ft | 24 kts | 213° |
| 2026-04-26 11:18 | 55.61834 | 12.64745 | 23 ft | 25 kts | 213° |
| 2026-04-26 11:18 | 55.61694 | 12.64585 | 26 ft | 23 kts | 213° |
| 2026-04-26 11:18 | 55.61562 | 12.64432 | 24 ft | 22 kts | 213° |
| 2026-04-26 11:19 | 55.61433 | 12.64286 | 23 ft | 22 kts | 213° |
| 2026-04-26 11:19 | 55.61308 | 12.64141 | 23 ft | 21 kts | 213° |
| 2026-04-26 11:19 | 55.61186 | 12.64001 | 23 ft | 21 kts | 213° |
| 2026-04-26 11:19 | 55.61068 | 12.63866 | 24 ft | 20 kts | 212° |
| 2026-04-26 11:20 | 55.60959 | 12.63741 | 26 ft | 17 kts | 213° |
| 2026-04-26 11:20 | 55.60903 | 12.63677 | 25 ft | 13 kts | 213° |
| 2026-04-26 11:20 | 55.60801 | 12.63597 | 26 ft | 12 kts | 168° |
| 2026-04-26 11:20 | 55.60740 | 12.63694 | 23 ft | 12 kts | 131° |
| 2026-04-26 11:21 | 55.60690 | 12.63797 | 29 ft | 10 kts | 129° |
| 2026-04-26 11:21 | 55.60688 | 12.63884 | 25 ft | 9 kts | 48° |
| 2026-04-26 11:21 | 55.60800 | 12.64059 | 28 ft | 50 kts | 41° |
| 2026-04-26 11:21 | 55.61247 | 12.64751 | 25 ft | 117 kts | 41° |
| 2026-04-26 11:22 | 55.61992 | 12.65899 | 169 ft | 155 kts | 40° |
| 2026-04-26 11:22 | 55.62786 | 12.67141 | 987 ft | 154 kts | 38° |
| 2026-04-26 11:22 | 55.63644 | 12.68451 | 1533 ft | 174 kts | 36° |
| 2026-04-26 11:22 | 55.64615 | 12.69924 | 2062 ft | 192 kts | 36° |
| 2026-04-26 11:23 | 55.65653 | 12.71491 | 2693 ft | 202 kts | 37° |
| 2026-04-26 11:23 | 55.66782 | 12.73213 | 3068 ft | 224 kts | 37° |
| 2026-04-26 11:23 | 55.68010 | 12.75077 | 3603 ft | 239 kts | 37° |
| 2026-04-26 11:23 | 55.69217 | 12.77187 | 4314 ft | 250 kts | 52° |
| 2026-04-26 11:24 | 55.69845 | 12.80114 | 5015 ft | 264 kts | 82° |
| 2026-04-26 11:24 | 55.69632 | 12.83372 | 5789 ft | 274 kts | 107° |
| 2026-04-26 11:24 | 55.68571 | 12.86237 | 6480 ft | 286 kts | 139° |
| 2026-04-26 11:24 | 55.66850 | 12.87982 | 7315 ft | 287 kts | 158° |
| 2026-04-26 11:25 | 55.64945 | 12.89277 | 7943 ft | 299 kts | 160° |
| 2026-04-26 11:25 | 55.62991 | 12.90559 | 8781 ft | 302 kts | 160° |
| 2026-04-26 11:25 | 55.61004 | 12.91880 | 9529 ft | 309 kts | 160° |
| 2026-04-26 11:25 | 55.58986 | 12.93236 | 10318 ft | 315 kts | 160° |
| 2026-04-26 11:26 | 55.56884 | 12.94658 | 10784 ft | 334 kts | 160° |
| 2026-04-26 11:26 | 55.54625 | 12.96192 | 10973 ft | 360 kts | 160° |
| 2026-04-26 11:26 | 55.52209 | 12.97837 | 11250 ft | 381 kts | 159° |
| 2026-04-26 11:26 | 55.49703 | 12.99547 | 11833 ft | 391 kts | 159° |
| 2026-04-26 11:27 | 55.47145 | 13.01293 | 12550 ft | 397 kts | 159° |
| 2026-04-26 11:27 | 55.44545 | 13.03067 | 13275 ft | 404 kts | 159° |
| 2026-04-26 11:27 | 55.41903 | 13.04868 | 14014 ft | 411 kts | 160° |
| 2026-04-26 11:27 | 55.39215 | 13.06696 | 14694 ft | 418 kts | 160° |
| 2026-04-26 11:28 | 55.36486 | 13.08551 | 15408 ft | 423 kts | 160° |
| 2026-04-26 11:28 | 55.33727 | 13.10422 | 16166 ft | 428 kts | 160° |
| 2026-04-26 11:28 | 55.30930 | 13.12316 | 16875 ft | 433 kts | 160° |
| 2026-04-26 11:28 | 55.28094 | 13.14233 | 17561 ft | 439 kts | 160° |
| 2026-04-26 11:29 | 55.25225 | 13.16169 | 18261 ft | 445 kts | 160° |
| 2026-04-26 11:29 | 55.22315 | 13.18130 | 18899 ft | 451 kts | 160° |
| 2026-04-26 11:29 | 55.19376 | 13.20108 | 19537 ft | 455 kts | 161° |
| 2026-04-26 11:29 | 55.16413 | 13.22100 | 20197 ft | 457 kts | 161° |
| 2026-04-26 11:30 | 55.13434 | 13.24099 | 20853 ft | 461 kts | 161° |
| 2026-04-26 11:30 | 55.11445 | 13.25431 | 21270 ft | 463 kts | 161° |
| 2026-04-26 11:30 | 55.07383 | 13.28147 | 21977 ft | 472 kts | 161° |
| 2026-04-26 11:30 | 55.04294 | 13.30209 | 22469 ft | 478 kts | 161° |
| 2026-04-26 11:31 | 55.01187 | 13.32282 | 23166 ft | 479 kts | 161° |
| 2026-04-26 11:31 | 54.98071 | 13.34358 | 23816 ft | 481 kts | 161° |
| 2026-04-26 11:31 | 54.94931 | 13.36444 | 24269 ft | 485 kts | 162° |
| 2026-04-26 11:31 | 54.91750 | 13.38447 | 24733 ft | 487 kts | 166° |
| 2026-04-26 11:32 | 54.88454 | 13.39722 | 25207 ft | 484 kts | 176° |
| 2026-04-26 11:32 | 54.85118 | 13.40555 | 25718 ft | 485 kts | 177° |
| 2026-04-26 11:32 | 54.81768 | 13.41355 | 26195 ft | 488 kts | 177° |
| 2026-04-26 11:32 | 54.78392 | 13.42194 | 26637 ft | 491 kts | 176° |
| 2026-04-26 11:33 | 54.75008 | 13.43082 | 27089 ft | 492 kts | 176° |
| 2026-04-26 11:33 | 54.71626 | 13.43993 | 27614 ft | 492 kts | 176° |
| 2026-04-26 11:33 | 54.68236 | 13.44908 | 28048 ft | 495 kts | 176° |
| 2026-04-26 11:33 | 54.64818 | 13.45824 | 28427 ft | 498 kts | 176° |
| 2026-04-26 11:34 | 54.61382 | 13.46741 | 28813 ft | 501 kts | 176° |
| 2026-04-26 11:34 | 54.57981 | 13.47648 | 29209 ft | 503 kts | 176° |
| 2026-04-26 11:34 | 54.54467 | 13.48584 | 29618 ft | 505 kts | 176° |
| 2026-04-26 11:34 | 54.51034 | 13.49496 | 29973 ft | 507 kts | 176° |
| 2026-04-26 11:35 | 54.47550 | 13.50404 | 30423 ft | 507 kts | 177° |
| 2026-04-26 11:35 | 54.44050 | 13.51287 | 30713 ft | 509 kts | 177° |
| 2026-04-26 11:35 | 54.40542 | 13.52162 | 31049 ft | 510 kts | 177° |
| 2026-04-26 11:35 | 54.38175 | 13.52756 | 31355 ft | 508 kts | 177° |
| 2026-04-26 11:36 | 54.33556 | 13.54007 | 32036 ft | 507 kts | 173° |
| 2026-04-26 11:36 | 54.30156 | 13.55659 | 32500 ft | 511 kts | 164° |
| 2026-04-26 11:36 | 54.26901 | 13.58179 | 32912 ft | 515 kts | 156° |
| 2026-04-26 11:36 | 54.23726 | 13.61021 | 33259 ft | 515 kts | 156° |
| 2026-04-26 11:37 | 54.20562 | 13.63865 | 33742 ft | 512 kts | 156° |
| 2026-04-26 11:37 | 54.17431 | 13.66609 | 34294 ft | 507 kts | 158° |
| 2026-04-26 11:37 | 54.14268 | 13.69312 | 34685 ft | 505 kts | 158° |
| 2026-04-26 11:37 | 54.11150 | 13.72085 | 34966 ft | 508 kts | 153° |
| 2026-04-26 11:38 | 54.08233 | 13.75531 | 35251 ft | 513 kts | 142° |
| 2026-04-26 11:38 | 54.05634 | 13.79691 | 35617 ft | 512 kts | 136° |
| 2026-04-26 11:38 | 54.03126 | 13.83973 | 36057 ft | 510 kts | 136° |
| 2026-04-26 11:38 | 54.00588 | 13.88193 | 36267 ft | 512 kts | 137° |
| 2026-04-26 11:39 | 53.97854 | 13.92069 | 36423 ft | 510 kts | 152° |
| 2026-04-26 11:39 | 53.94644 | 13.94458 | 36728 ft | 500 kts | 169° |
| 2026-04-26 11:39 | 53.91280 | 13.95511 | 37202 ft | 484 kts | 183° |
| 2026-04-26 11:39 | 53.87983 | 13.95273 | 37693 ft | 469 kts | 193° |
| 2026-04-26 11:40 | 53.84753 | 13.94533 | 37952 ft | 469 kts | 194° |
| 2026-04-26 11:40 | 53.81513 | 13.93712 | 38095 ft | 472 kts | 194° |
| 2026-04-26 11:40 | 53.78263 | 13.92877 | 38294 ft | 473 kts | 194° |
| 2026-04-26 11:40 | 53.75013 | 13.92065 | 38629 ft | 472 kts | 194° |
| 2026-04-26 11:41 | 53.72862 | 13.91544 | 38847 ft | 471 kts | 194° |
| 2026-04-26 11:42 | 53.50222 | 13.86383 | 40235 ft | 469 kts | 193° |
| 2026-04-26 11:43 | 53.46985 | 13.85656 | 40424 ft | 469 kts | 192° |
| 2026-04-26 11:43 | 53.43754 | 13.84931 | 40576 ft | 469 kts | 192° |
| 2026-04-26 11:43 | 53.40521 | 13.84206 | 40786 ft | 468 kts | 192° |
| 2026-04-26 11:43 | 53.37297 | 13.83484 | 40983 ft | 467 kts | 192° |
| 2026-04-26 11:44 | 53.34072 | 13.82763 | 41116 ft | 468 kts | 192° |
| 2026-04-26 11:44 | 53.30839 | 13.82040 | 41241 ft | 469 kts | 192° |
| 2026-04-26 11:44 | 53.24344 | 13.80590 | 41300 ft | 473 kts | 192° |
| 2026-04-26 11:45 | 53.17850 | 13.79150 | 41284 ft | 469 kts | 192° |
| 2026-04-26 11:45 | 53.11409 | 13.77726 | 41299 ft | 465 kts | 192° |
| 2026-04-26 11:46 | 53.05011 | 13.76314 | 41307 ft | 462 kts | 192° |
| 2026-04-26 11:46 | 52.98643 | 13.74911 | 41307 ft | 460 kts | 192° |
| 2026-04-26 11:47 | 52.92302 | 13.73518 | 41296 ft | 459 kts | 192° |
| 2026-04-26 11:47 | 52.85967 | 13.72131 | 41309 ft | 459 kts | 192° |
| 2026-04-26 11:48 | 52.79632 | 13.70748 | 41315 ft | 460 kts | 192° |
| 2026-04-26 11:48 | 52.73281 | 13.69365 | 41315 ft | 462 kts | 192° |
| 2026-04-26 11:49 | 52.66900 | 13.67980 | 41318 ft | 464 kts | 192° |
| 2026-04-26 11:49 | 52.60484 | 13.66592 | 41320 ft | 466 kts | 192° |
| 2026-04-26 11:50 | 52.54086 | 13.65213 | 41322 ft | 468 kts | 192° |
| 2026-04-26 11:50 | 52.47617 | 13.63821 | 41322 ft | 470 kts | 192° |
| 2026-04-26 11:51 | 52.41128 | 13.62432 | 41314 ft | 470 kts | 191° |
| 2026-04-26 11:51 | 52.34558 | 13.61963 | 41327 ft | 474 kts | 183° |
| 2026-04-26 11:52 | 52.27951 | 13.62136 | 41311 ft | 474 kts | 182° |
| 2026-04-26 11:52 | 52.21361 | 13.62290 | 41292 ft | 473 kts | 183° |
| 2026-04-26 11:53 | 52.14798 | 13.62362 | 41300 ft | 470 kts | 184° |
| 2026-04-26 11:54 | 52.05007 | 13.62417 | 41297 ft | 468 kts | 184° |
| 2026-04-26 11:54 | 51.98516 | 13.62453 | 41291 ft | 466 kts | 184° |
| 2026-04-26 11:55 | 51.92047 | 13.62491 | 41297 ft | 464 kts | 183° |
| 2026-04-26 11:55 | 51.85601 | 13.62530 | 41293 ft | 463 kts | 183° |
| 2026-04-26 11:56 | 51.79166 | 13.62569 | 41301 ft | 462 kts | 183° |
| 2026-04-26 11:56 | 51.72741 | 13.62608 | 41281 ft | 462 kts | 183° |
| 2026-04-26 11:57 | 51.66322 | 13.62646 | 41295 ft | 461 kts | 183° |
| 2026-04-26 11:57 | 51.59904 | 13.62685 | 41303 ft | 461 kts | 183° |
| 2026-04-26 11:58 | 51.53479 | 13.62723 | 41288 ft | 462 kts | 184° |
| 2026-04-26 11:58 | 51.47037 | 13.62761 | 41271 ft | 463 kts | 183° |
| 2026-04-26 11:59 | 51.40590 | 13.62784 | 41284 ft | 463 kts | 184° |
| 2026-04-26 11:59 | 51.34177 | 13.62790 | 41288 ft | 464 kts | 184° |
| 2026-04-26 12:00 | 51.27713 | 13.62796 | 41309 ft | 465 kts | 184° |
| 2026-04-26 12:00 | 51.21245 | 13.62806 | 41312 ft | 465 kts | 183° |
| 2026-04-26 12:01 | 51.14773 | 13.62816 | 41320 ft | 465 kts | 183° |
| 2026-04-26 12:01 | 51.08310 | 13.62827 | 41317 ft | 464 kts | 183° |
| 2026-04-26 12:02 | 51.01858 | 13.62837 | 41311 ft | 463 kts | 183° |
| 2026-04-26 12:02 | 50.95421 | 13.62847 | 41301 ft | 462 kts | 183° |